C-Class W202 Forum

Объявление

Уважаемые пользователи форума, если у Вас проблемы с регистрацией или входом на форум используйте в качестве браузера Opera

Информация о пользователе

Привет, Гость! Войдите или зарегистрируйтесь.


Вы здесь » C-Class W202 Forum » Двигатели


Двигатели

Тем 181 страница 210 из 1151

Тема Ответов Просмотров Последнее сообщение
11 1012 2012-04-02 21:44:15  VoLT_157
182 обороты  Илюха54
16 163 2012-04-02 08:31:21  Илюха54
4 233 2012-04-02 08:19:22  911UD
4 108 2012-04-01 22:57:25  Almay
21 504 2012-04-01 17:09:53  александр w202
3 154 2012-04-01 11:09:07  Patrick
58 1054 2012-03-30 19:12:04  Sarmat
3 193 2012-03-30 18:04:03  AKII
189 Дворник  sel
16 561 2012-03-30 14:42:09  AltriD
16 457 2012-03-29 22:35:54  73yura
84 2882 2012-03-28 13:17:49  942
5 215 2012-03-27 22:28:33  коба666
8 275 2012-03-27 22:22:53  коба666
9 210 2012-03-27 19:23:51  wolk985
14 913 2012-03-27 12:19:33  sledge hammer
1 32 2012-03-27 11:56:18  Fallen Religion
36 5986 2012-03-27 09:40:02  TAMERJlAN
18 525 2012-03-26 18:37:05  vital199
16 181 2012-03-25 22:37:08  Сергей 999
13 199 2012-03-25 20:24:09  VoLT_157
5 169 2012-03-24 12:53:27  анdрей
48 1016 2012-03-24 12:47:54  bunu
10 249 2012-03-24 12:16:12  jul202
15 226 2012-03-23 14:19:23  rfv
5 113 2012-03-22 00:59:01  sledge hammer
14 277 2012-03-21 18:14:51  vital199
207 Перемещена: km/h = rpm  Slaffk
     
0 77 2012-03-20 10:54:59  romeo958
5 171 2012-03-20 10:54:15  Роман 500106
25 751 2012-03-19 21:06:47  Sania

Вы здесь » C-Class W202 Forum » Двигатели